Time;durP1;ratioP1;P1;durP2;ratioP2;P2;SDS_P1;SDS_P2;PMS_P1;PMS_P2;Temp;Humidity;BMP_temperature;BMP_pressure;BME280_temperature;BME280_humidity;BME280_pressure;Samples;Min_cycle;Max_cycle;Signal;HPM_P1;HPM_P2
2020/12/25 06:02:16;;;;;;;4.93;1.42;;;;;;;;;;5063834;28;20377;-59
2020/12/25 06:04:42;;;;;;;6.28;0.90;;;;;;;;;;5064615;28;20358;-60
2020/12/25 06:07:11;;;;;;;8.10;1.13;;;;;;;;;;5064735;28;20043;-60
2020/12/25 06:09:41;;;;;;;12.05;2.60;;;;;;;;;;5064713;28;20025;-60
2020/12/25 06:12:07;;;;;;;5.35;1.13;;;;;;;;;;5064359;28;20041;-60
2020/12/25 06:14:33;;;;;;;4.43;1.30;;;;;;;;;;5063999;28;20064;-60
2020/12/25 06:16:59;;;;;;;12.13;1.10;;;;;;;;;;5066300;28;20112;-60
2020/12/25 06:19:35;;;;;;;7.22;1.13;;;;;;;;;;5065704;28;20032;-60
2020/12/25 06:22:01;;;;;;;11.10;1.20;;;;;;;;;;5063593;28;20029;-60
2020/12/25 06:24:31;;;;;;;10.55;1.40;;;;;;;;;;5063601;28;20128;-59
2020/12/25 06:26:59;;;;;;;7.95;1.25;;;;;;;;;;5063740;28;20047;-60
2020/12/25 06:29:26;;;;;;;5.47;1.40;;;;;;;;;;5063841;28;20474;-60
2020/12/25 06:31:54;;;;;;;3.72;1.00;;;;;;;;;;5064589;28;20032;-60
2020/12/25 06:34:20;;;;;;;6.30;1.02;;;;;;;;;;5066124;28;20052;-60
2020/12/25 06:36:49;;;;;;;7.20;1.40;;;;;;;;;;5063510;28;20024;-60
2020/12/25 06:39:22;;;;;;;4.30;1.00;;;;;;;;;;5063919;28;20068;-60
2020/12/25 06:41:48;;;;;;;12.18;1.38;;;;;;;;;;5062948;28;20094;-60
2020/12/25 06:44:15;;;;;;;8.23;1.52;;;;;;;;;;5064095;28;20076;-60
2020/12/25 06:46:48;;;;;;;8.75;1.20;;;;;;;;;;5066932;28;20041;-60
2020/12/25 06:49:15;;;;;;;8.05;1.10;;;;;;;;;;5065631;28;20485;-59
2020/12/25 06:51:45;;;;;;;6.13;1.17;;;;;;;;;;5062597;28;20539;-59
2020/12/25 06:54:26;;;;;;;7.03;1.35;;;;;;;;;;5062591;28;20374;-59
2020/12/25 06:56:53;;;;;;;9.30;1.25;;;;;;;;;;5062295;28;20086;-59
2020/12/25 06:59:19;;;;;;;9.13;1.00;;;;;;;;;;5062413;28;20112;-59
2020/12/25 07:01:47;;;;;;;7.03;0.90;;;;;;;;;;5060934;28;20098;-59
2020/12/25 07:04:32;;;;;;;9.63;0.90;;;;;;;;;;5045883;28;20040;-60
2020/12/25 07:07:03;;;;;;;11.18;1.20;;;;;;;;;;5049535;28;20612;-59
2020/12/25 07:09:39;;;;;;;7.97;1.40;;;;;;;;;;5049675;28;20033;-60
2020/12/25 07:12:09;;;;;;;7.18;1.17;;;;;;;;;;5049199;28;20494;-59
2020/12/25 07:14:35;;;;;;;7.55;1.33;;;;;;;;;;5049717;28;20022;-60
2020/12/25 07:17:01;;;;;;;8.75;1.05;;;;;;;;;;5051269;28;20029;-60
2020/12/25 07:19:27;;;;;;;17.80;1.52;;;;;;;;;;5043894;28;20029;-60
2020/12/25 07:21:53;;;;;;;7.93;1.42;;;;;;;;;;5045088;28;20119;-59
2020/12/25 07:24:19;;;;;;;10.25;0.98;;;;;;;;;;5051840;28;20485;-59
2020/12/25 07:26:46;;;;;;;8.30;1.45;;;;;;;;;;5050689;28;20036;-60
2020/12/25 07:29:13;;;;;;;7.88;1.25;;;;;;;;;;5048467;28;20107;-60
2020/12/25 07:31:45;;;;;;;4.57;1.25;;;;;;;;;;5048005;28;20099;-60
2020/12/25 07:34:15;;;;;;;11.98;1.00;;;;;;;;;;5047989;28;20061;-59
2020/12/25 07:36:41;;;;;;;9.23;1.05;;;;;;;;;;5048557;28;20124;-59
2020/12/25 07:39:07;;;;;;;3.70;0.88;;;;;;;;;;5051204;28;20498;-61
2020/12/25 07:41:35;;;;;;;5.97;0.88;;;;;;;;;;5048846;28;20039;-61
2020/12/25 07:44:02;;;;;;;8.93;1.67;;;;;;;;;;5052432;28;20452;-58
2020/12/25 07:46:30;;;;;;;6.68;2.17;;;;;;;;;;5048863;28;20044;-60
2020/12/25 07:49:00;;;;;;;12.05;1.10;;;;;;;;;;5047876;28;20030;-60
2020/12/25 07:51:26;;;;;;;9.63;1.63;;;;;;;;;;5064314;28;20046;-60
2020/12/25 07:53:54;;;;;;;11.00;1.83;;;;;;;;;;5052216;28;20060;-60
2020/12/25 07:56:21;;;;;;;8.40;0.88;;;;;;;;;;5058653;28;20089;-61
2020/12/25 07:58:48;;;;;;;4.60;0.90;;;;;;;;;;5045210;28;20048;-62
2020/12/25 08:01:16;;;;;;;11.20;1.00;;;;;;;;;;5047783;28;20095;-62
2020/12/25 08:03:43;;;;;;;4.15;0.98;;;;;;;;;;5052083;28;20029;-63
2020/12/25 08:06:10;;;;;;;5.13;1.25;;;;;;;;;;5051868;28;20059;-62
2020/12/25 08:08:36;;;;;;;5.78;1.30;;;;;;;;;;5048181;28;20028;-63
2020/12/25 08:11:03;;;;;;;7.00;1.05;;;;;;;;;;5049044;28;20401;-66
2020/12/25 08:13:29;;;;;;;6.10;1.00;;;;;;;;;;5047613;28;20100;-63
2020/12/25 08:15:55;;;;;;;9.27;1.70;;;;;;;;;;5064650;28;20040;-63
2020/12/25 08:18:21;;;;;;;4.97;0.98;;;;;;;;;;5051025;28;20059;-60
2020/12/25 08:20:54;;;;;;;8.85;1.60;;;;;;;;;;5046182;28;20033;-62
2020/12/25 08:23:20;;;;;;;186.40;123.70;;;;;;;;;;5047050;28;20524;-61
2020/12/25 08:25:52;;;;;;;26.75;16.27;;;;;;;;;;5046061;28;20033;-60
2020/12/25 08:28:19;;;;;;;18.13;7.13;;;;;;;;;;5039821;28;20120;-60
2020/12/25 08:30:46;;;;;;;15.38;6.95;;;;;;;;;;5043539;28;20033;-60
2020/12/25 08:33:12;;;;;;;7.60;1.35;;;;;;;;;;5050191;28;20116;-60
2020/12/25 08:35:38;;;;;;;35.33;19.48;;;;;;;;;;5048303;28;20437;-60
2020/12/25 08:38:04;;;;;;;6.97;2.88;;;;;;;;;;5047144;28;20450;-62
2020/12/25 08:40:31;;;;;;;6.80;1.80;;;;;;;;;;5047955;28;20399;-60
2020/12/25 08:43:06;;;;;;;27.00;12.68;;;;;;;;;;5047720;28;20032;-60
2020/12/25 08:45:32;;;;;;;29.90;12.27;;;;;;;;;;5048468;28;20028;-60
2020/12/25 08:48:11;;;;;;;31.60;10.30;;;;;;;;;;5050220;28;20413;-62
2020/12/25 08:50:39;;;;;;;168.18;120.55;;;;;;;;;;5057835;28;20045;-63
2020/12/25 08:53:11;;;;;;;300.92;233.48;;;;;;;;;;5053727;28;20017;-63
2020/12/25 08:55:38;;;;;;;73.78;59.03;;;;;;;;;;5048443;28;20040;-63
2020/12/25 08:58:05;;;;;;;67.50;60.42;;;;;;;;;;5053467;28;20558;-58
2020/12/25 09:00:31;;;;;;;144.75;77.63;;;;;;;;;;5048374;28;20049;-59
2020/12/25 09:02:58;;;;;;;292.92;182.38;;;;;;;;;;5048702;28;20037;-58
2020/12/25 09:05:24;;;;;;;206.55;106.70;;;;;;;;;;5046972;28;20029;-57
2020/12/25 09:07:50;;;;;;;214.73;88.13;;;;;;;;;;5046474;28;20036;-59
2020/12/25 09:10:17;;;;;;;333.65;136.45;;;;;;;;;;5049720;28;20041;-59
2020/12/25 09:12:43;;;;;;;19.58;10.45;;;;;;;;;;5048805;28;20025;-63
2020/12/25 09:15:09;;;;;;;261.95;132.15;;;;;;;;;;5055928;28;20024;-64
2020/12/25 09:17:35;;;;;;;160.40;96.88;;;;;;;;;;5055872;28;20048;-65
2020/12/25 09:20:02;;;;;;;153.00;89.50;;;;;;;;;;5051684;28;20028;-65
2020/12/25 09:22:28;;;;;;;11.90;4.72;;;;;;;;;;5044544;28;20139;-64
2020/12/25 09:24:54;;;;;;;34.72;17.60;;;;;;;;;;5047491;28;20421;-64
2020/12/25 09:27:20;;;;;;;46.90;19.15;;;;;;;;;;5049559;28;20062;-65
2020/12/25 09:29:46;;;;;;;17.17;5.47;;;;;;;;;;5044924;28;20401;-65
2020/12/25 09:32:12;;;;;;;9.10;2.70;;;;;;;;;;5047041;28;20073;-66
2020/12/25 09:34:38;;;;;;;10.57;1.00;;;;;;;;;;5043845;28;20394;-65
2020/12/25 09:37:04;;;;;;;4.65;1.13;;;;;;;;;;5046773;28;20029;-66
2020/12/25 09:39:30;;;;;;;6.20;1.17;;;;;;;;;;5048362;28;20028;-64
2020/12/25 09:41:57;;;;;;;7.57;1.27;;;;;;;;;;5055934;28;20489;-65
2020/12/25 09:44:23;;;;;;;7.47;1.10;;;;;;;;;;5048415;28;20032;-64
2020/12/25 09:46:49;;;;;;;9.77;0.82;;;;;;;;;;5049260;28;20020;-64
2020/12/25 09:49:15;;;;;;;4.22;0.98;;;;;;;;;;5047766;28;20031;-66
2020/12/25 09:51:41;;;;;;;3.60;0.75;;;;;;;;;;5050443;28;20041;-64
2020/12/25 09:54:07;;;;;;;4.70;0.75;;;;;;;;;;5049744;28;20105;-65
2020/12/25 09:56:33;;;;;;;6.38;1.17;;;;;;;;;;5045215;28;20041;-65
2020/12/25 09:58:59;;;;;;;7.13;1.05;;;;;;;;;;5051324;28;20028;-65
2020/12/25 10:01:26;;;;;;;10.15;3.63;;;;;;;;;;5048941;28;20064;-58
2020/12/25 10:03:52;;;;;;;3.58;1.23;;;;;;;;;;5046307;28;20478;-58
2020/12/25 10:06:20;;;;;;;6.90;2.80;;;;;;;;;;5040598;28;20045;-61
2020/12/25 10:08:46;;;;;;;8.13;2.45;;;;;;;;;;5054906;28;20048;-62
2020/12/25 10:11:13;;;;;;;13.20;4.85;;;;;;;;;;5044733;28;20038;-61
2020/12/25 10:13:39;;;;;;;6.57;1.60;;;;;;;;;;5037306;28;20040;-62
2020/12/25 10:16:05;;;;;;;6.10;2.35;;;;;;;;;;5041077;28;20029;-61
2020/12/25 10:18:31;;;;;;;32.92;26.02;;;;;;;;;;5031966;28;20028;-61
2020/12/25 10:20:57;;;;;;;12.32;9.80;;;;;;;;;;5030684;28;20026;-59
2020/12/25 10:23:23;;;;;;;15.00;11.60;;;;;;;;;;5030700;28;20045;-59
2020/12/25 10:25:49;;;;;;;138.38;123.97;;;;;;;;;;5029274;28;20022;-59
2020/12/25 10:28:16;;;;;;;193.65;45.20;;;;;;;;;;5029982;28;20116;-59
2020/12/25 10:30:42;;;;;;;57.85;14.05;;;;;;;;;;5029012;28;21624;-59
2020/12/25 10:33:08;;;;;;;236.30;59.08;;;;;;;;;;5037909;28;20051;-60
2020/12/25 10:35:34;;;;;;;60.30;14.02;;;;;;;;;;5042371;28;20041;-59
2020/12/25 10:38:00;;;;;;;9.60;2.05;;;;;;;;;;5044814;28;20477;-59
2020/12/25 10:40:26;;;;;;;24.92;6.18;;;;;;;;;;5032995;28;20029;-59
2020/12/25 10:42:52;;;;;;;233.25;55.33;;;;;;;;;;5032560;28;20025;-59
2020/12/25 10:45:18;;;;;;;39.15;9.52;;;;;;;;;;5031992;28;20040;-59
2020/12/25 10:47:46;;;;;;;5.03;0.80;;;;;;;;;;5031418;28;20593;-59
2020/12/25 10:50:12;;;;;;;86.07;19.60;;;;;;;;;;5031485;28;20092;-60
2020/12/25 10:52:38;;;;;;;218.60;45.92;;;;;;;;;;5038954;28;20065;-59
2020/12/25 10:55:04;;;;;;;95.13;17.40;;;;;;;;;;5033810;28;20032;-60
2020/12/25 10:57:30;;;;;;;68.68;15.70;;;;;;;;;;5041427;28;20383;-59
2020/12/25 10:59:56;;;;;;;29.40;4.85;;;;;;;;;;5038238;28;20044;-60
2020/12/25 11:02:22;;;;;;;239.77;54.05;;;;;;;;;;5053528;28;20025;-60
2020/12/25 11:04:48;;;;;;;189.45;41.83;;;;;;;;;;5049019;28;20042;-60
2020/12/25 11:07:15;;;;;;;8.27;1.77;;;;;;;;;;5049535;28;20040;-59
2020/12/25 11:09:41;;;;;;;85.80;21.05;;;;;;;;;;5050607;28;20485;-59
2020/12/25 11:12:07;;;;;;;13.75;3.30;;;;;;;;;;5051573;28;20041;-59
2020/12/25 11:14:34;;;;;;;7.00;0.90;;;;;;;;;;5049220;28;20096;-60
2020/12/25 11:17:00;;;;;;;4.30;1.08;;;;;;;;;;5049500;28;20021;-60
2020/12/25 11:19:26;;;;;;;36.30;9.75;;;;;;;;;;5049311;28;20155;-61
2020/12/25 11:21:52;;;;;;;66.30;14.88;;;;;;;;;;5048539;28;20082;-60
2020/12/25 11:24:18;;;;;;;34.80;9.43;;;;;;;;;;5052600;28;20021;-60
2020/12/25 11:26:44;;;;;;;67.72;19.15;;;;;;;;;;5050121;28;20032;-60
2020/12/25 11:29:11;;;;;;;28.42;6.45;;;;;;;;;;5050663;28;20055;-60
2020/12/25 11:31:38;;;;;;;154.10;53.97;;;;;;;;;;5048910;28;20503;-61
2020/12/25 11:34:05;;;;;;;128.93;40.72;;;;;;;;;;5048935;28;20037;-60
2020/12/25 11:36:32;;;;;;;2.90;1.20;;;;;;;;;;5051516;28;20036;-60
2020/12/25 11:38:59;;;;;;;14.25;4.22;;;;;;;;;;5047806;28;20108;-60
2020/12/25 11:41:25;;;;;;;26.30;8.98;;;;;;;;;;5048592;28;20029;-60
2020/12/25 11:43:52;;;;;;;25.48;7.13;;;;;;;;;;5048324;28;20025;-60
2020/12/25 11:46:19;;;;;;;68.57;26.83;;;;;;;;;;5041756;28;20033;-60
2020/12/25 11:48:45;;;;;;;146.10;52.17;;;;;;;;;;5049316;28;20077;-60
2020/12/25 11:51:18;;;;;;;84.20;28.08;;;;;;;;;;5051847;28;20055;-60
2020/12/25 11:53:45;;;;;;;106.10;38.17;;;;;;;;;;5048931;28;20490;-62
2020/12/25 11:56:11;;;;;;;193.20;77.30;;;;;;;;;;5049516;28;20013;-60
2020/12/25 11:58:37;;;;;;;351.42;133.63;;;;;;;;;;5048690;28;20660;-60
2020/12/25 12:01:04;;;;;;;326.13;122.88;;;;;;;;;;5049410;28;20075;-60
2020/12/25 12:03:30;;;;;;;205.63;93.07;;;;;;;;;;5050644;28;20055;-60
2020/12/25 12:05:56;;;;;;;47.45;14.77;;;;;;;;;;5051322;28;20128;-61
2020/12/25 12:08:22;;;;;;;22.63;7.07;;;;;;;;;;5049290;28;20474;-60
2020/12/25 12:10:48;;;;;;;35.15;15.82;;;;;;;;;;5049046;28;20131;-60
2020/12/25 12:13:14;;;;;;;75.85;27.77;;;;;;;;;;5049564;28;20070;-60
2020/12/25 12:15:40;;;;;;;53.40;17.73;;;;;;;;;;5049229;28;20038;-60
2020/12/25 12:18:07;;;;;;;284.00;145.65;;;;;;;;;;5051958;28;20028;-60
2020/12/25 12:20:34;;;;;;;181.60;83.82;;;;;;;;;;5049272;28;20028;-60
2020/12/25 12:23:00;;;;;;;31.00;9.07;;;;;;;;;;5044444;28;20025;-60
2020/12/25 12:25:27;;;;;;;356.40;126.65;;;;;;;;;;5048119;28;20064;-60
2020/12/25 12:27:53;;;;;;;311.75;188.27;;;;;;;;;;5048128;28;20106;-60
2020/12/25 12:30:20;;;;;;;39.28;17.33;;;;;;;;;;5051405;28;20143;-60
2020/12/25 12:32:46;;;;;;;39.95;16.40;;;;;;;;;;5049870;28;20040;-60
2020/12/25 12:35:12;;;;;;;97.88;37.53;;;;;;;;;;5047354;28;20100;-61
2020/12/25 12:37:39;;;;;;;17.88;6.32;;;;;;;;;;5048768;28;20387;-60
2020/12/25 12:40:05;;;;;;;21.65;5.65;;;;;;;;;;5047452;28;20139;-60
2020/12/25 12:42:34;;;;;;;47.22;15.55;;;;;;;;;;5049589;28;20053;-60
2020/12/25 12:45:01;;;;;;;65.30;19.80;;;;;;;;;;5049161;28;20033;-60
2020/12/25 12:47:30;;;;;;;20.17;6.63;;;;;;;;;;5047830;28;20021;-60
2020/12/25 12:49:56;;;;;;;55.88;17.23;;;;;;;;;;5048661;28;20047;-60
2020/12/25 12:52:22;;;;;;;66.00;16.80;;;;;;;;;;5048677;28;20087;-60
2020/12/25 12:54:48;;;;;;;38.88;11.02;;;;;;;;;;5032076;28;20025;-60
2020/12/25 12:57:14;;;;;;;37.05;8.48;;;;;;;;;;5051048;28;20048;-60
2020/12/25 12:59:40;;;;;;;28.58;7.88;;;;;;;;;;5044553;28;20110;-61
2020/12/25 13:02:07;;;;;;;86.53;19.73;;;;;;;;;;5046401;28;20064;-60
2020/12/25 13:04:33;;;;;;;115.13;56.38;;;;;;;;;;5047427;28;20048;-60
2020/12/25 13:06:59;;;;;;;10.82;7.18;;;;;;;;;;5047549;28;20025;-61
2020/12/25 13:09:26;;;;;;;7.55;2.80;;;;;;;;;;5051618;28;20082;-61
2020/12/25 13:11:52;;;;;;;161.70;71.60;;;;;;;;;;5059606;28;20086;-61
2020/12/25 13:14:18;;;;;;;33.58;12.82;;;;;;;;;;5052079;28;20028;-62
2020/12/25 13:16:44;;;;;;;110.47;44.15;;;;;;;;;;5047479;28;20032;-60
2020/12/25 13:19:10;;;;;;;142.60;51.55;;;;;;;;;;5047330;28;20630;-59
2020/12/25 13:21:36;;;;;;;79.32;29.40;;;;;;;;;;5045897;28;20039;-59
2020/12/25 13:24:02;;;;;;;67.88;22.23;;;;;;;;;;5048927;28;20047;-63
2020/12/25 13:26:28;;;;;;;34.03;10.43;;;;;;;;;;5053253;28;20035;-60
2020/12/25 13:28:54;;;;;;;49.05;16.55;;;;;;;;;;5055627;28;20029;-59
2020/12/25 13:31:24;;;;;;;24.58;6.78;;;;;;;;;;5047550;28;20030;-59
2020/12/25 13:33:51;;;;;;;48.40;12.35;;;;;;;;;;5031799;28;20029;-59
2020/12/25 13:36:18;;;;;;;5.53;1.70;;;;;;;;;;5051031;28;20452;-59
2020/12/25 13:38:44;;;;;;;37.65;12.15;;;;;;;;;;5047292;28;20444;-60
2020/12/25 13:41:14;;;;;;;40.92;9.57;;;;;;;;;;5047349;28;20489;-60
2020/12/25 13:43:40;;;;;;;56.60;15.38;;;;;;;;;;5048543;28;20056;-59
2020/12/25 13:46:06;;;;;;;46.75;15.63;;;;;;;;;;5047404;28;20147;-61
2020/12/25 13:48:32;;;;;;;60.88;17.90;;;;;;;;;;5049274;28;20086;-61
2020/12/25 13:50:59;;;;;;;14.80;3.92;;;;;;;;;;5048071;28;20041;-61
2020/12/25 13:53:25;;;;;;;5.63;2.35;;;;;;;;;;5047312;28;20032;-60
2020/12/25 13:55:52;;;;;;;46.50;16.92;;;;;;;;;;5048182;28;20035;-62
2020/12/25 13:58:18;;;;;;;21.88;8.55;;;;;;;;;;5048401;28;20025;-62
2020/12/25 14:00:44;;;;;;;12.98;5.03;;;;;;;;;;5047342;28;20037;-60
2020/12/25 14:03:10;;;;;;;14.27;4.57;;;;;;;;;;5049919;28;20102;-60
2020/12/25 14:05:36;;;;;;;16.20;5.78;;;;;;;;;;5046970;28;20493;-60
2020/12/25 14:08:02;;;;;;;47.28;14.85;;;;;;;;;;5047163;28;20481;-60
2020/12/25 14:10:29;;;;;;;33.17;10.27;;;;;;;;;;5047080;28;20029;-67
2020/12/25 14:12:55;;;;;;;37.70;14.98;;;;;;;;;;5049213;28;20474;-59
2020/12/25 14:15:21;;;;;;;15.05;5.53;;;;;;;;;;5053951;28;20045;-59
2020/12/25 14:17:47;;;;;;;19.15;3.50;;;;;;;;;;5050878;28;20053;-59
2020/12/25 14:20:13;;;;;;;11.80;3.75;;;;;;;;;;5050420;28;20551;-59
2020/12/25 14:22:40;;;;;;;41.22;13.48;;;;;;;;;;5050210;28;20397;-60
2020/12/25 14:25:06;;;;;;;21.90;6.35;;;;;;;;;;5050922;28;20080;-60
2020/12/25 14:27:32;;;;;;;8.15;1.90;;;;;;;;;;5052812;28;20108;-60
2020/12/25 14:29:59;;;;;;;33.53;10.40;;;;;;;;;;5052945;28;20473;-59
2020/12/25 14:32:25;;;;;;;20.42;7.38;;;;;;;;;;5050839;28;20031;-60
2020/12/25 14:34:51;;;;;;;54.42;17.08;;;;;;;;;;5051783;28;20029;-60
2020/12/25 14:37:18;;;;;;;51.47;12.68;;;;;;;;;;5050772;28;20029;-59
2020/12/25 14:39:44;;;;;;;33.92;8.98;;;;;;;;;;5052030;28;20040;-59
2020/12/25 14:42:10;;;;;;;136.82;83.25;;;;;;;;;;5054232;28;20044;-59
2020/12/25 14:44:36;;;;;;;126.13;100.30;;;;;;;;;;5050552;28;20410;-60
2020/12/25 14:47:03;;;;;;;123.03;62.22;;;;;;;;;;5051468;28;20501;-60
2020/12/25 14:49:29;;;;;;;138.02;61.83;;;;;;;;;;5051617;28;20171;-60
2020/12/25 14:51:55;;;;;;;70.18;28.25;;;;;;;;;;5050510;28;20055;-60
2020/12/25 14:54:22;;;;;;;70.53;24.45;;;;;;;;;;5053528;28;20037;-59
2020/12/25 14:56:49;;;;;;;17.98;5.15;;;;;;;;;;5050325;28;20044;-59
2020/12/25 14:59:15;;;;;;;52.75;16.95;;;;;;;;;;5049965;28;20490;-59
2020/12/25 15:01:41;;;;;;;26.15;7.70;;;;;;;;;;5049709;28;20072;-59
2020/12/25 15:04:07;;;;;;;76.03;23.65;;;;;;;;;;5051536;28;20017;-59
2020/12/25 15:06:33;;;;;;;43.92;12.38;;;;;;;;;;5051890;28;20398;-60
2020/12/25 15:08:59;;;;;;;81.13;28.02;;;;;;;;;;5053144;28;20025;-59
2020/12/25 15:11:26;;;;;;;144.65;46.92;;;;;;;;;;5051322;28;20037;-60
2020/12/25 15:13:53;;;;;;;62.30;21.10;;;;;;;;;;5050945;28;20025;-60
2020/12/25 15:16:20;;;;;;;68.63;25.95;;;;;;;;;;5051370;28;20477;-59
2020/12/25 15:18:47;;;;;;;103.00;38.13;;;;;;;;;;5051010;28;20021;-60
2020/12/25 15:21:13;;;;;;;36.13;12.77;;;;;;;;;;5053351;28;20056;-59
2020/12/25 15:23:39;;;;;;;96.72;37.45;;;;;;;;;;5049267;28;20025;-60
2020/12/25 15:26:06;;;;;;;15.20;6.13;;;;;;;;;;5045864;28;20033;-60
2020/12/25 15:28:32;;;;;;;105.97;44.67;;;;;;;;;;5039729;28;20024;-59
2020/12/25 15:30:58;;;;;;;30.92;11.18;;;;;;;;;;5049477;28;20060;-60
2020/12/25 15:33:24;;;;;;;98.50;29.40;;;;;;;;;;5052525;28;20082;-59
2020/12/25 15:35:51;;;;;;;169.45;56.50;;;;;;;;;;5050191;28;20037;-59
2020/12/25 15:38:17;;;;;;;49.28;34.03;;;;;;;;;;5049359;28;20372;-59
2020/12/25 15:40:44;;;;;;;140.63;102.60;;;;;;;;;;5049492;28;20044;-59
2020/12/25 15:43:10;;;;;;;541.60;235.95;;;;;;;;;;5049389;28;20048;-59
2020/12/25 15:45:36;;;;;;;825.20;408.50;;;;;;;;;;5051603;28;20448;-60
2020/12/25 15:48:03;;;;;;;284.77;100.75;;;;;;;;;;5051466;28;20078;-60
2020/12/25 15:50:30;;;;;;;238.15;84.93;;;;;;;;;;5049331;28;20130;-60
2020/12/25 15:52:56;;;;;;;300.33;109.70;;;;;;;;;;5049181;28;20013;-60
2020/12/25 15:55:22;;;;;;;548.45;211.60;;;;;;;;;;5049255;28;20127;-59
2020/12/25 15:57:48;;;;;;;175.55;62.55;;;;;;;;;;5049729;28;20073;-59
2020/12/25 16:00:14;;;;;;;92.32;31.25;;;;;;;;;;5052081;28;20567;-60
2020/12/25 16:02:47;;;;;;;360.45;117.53;;;;;;;;;;5048655;28;20553;-60
2020/12/25 16:05:16;;;;;;;179.43;49.75;;;;;;;;;;5049031;28;20029;-60
2020/12/25 16:07:46;;;;;;;117.75;32.45;;;;;;;;;;5049363;28;20017;-59
2020/12/25 16:10:13;;;;;;;357.08;112.68;;;;;;;;;;5049277;28;20021;-60
2020/12/25 16:12:39;;;;;;;203.48;67.55;;;;;;;;;;5050790;28;20029;-60
2020/12/25 16:15:06;;;;;;;49.28;15.15;;;;;;;;;;5051019;28;20032;-60
2020/12/25 16:17:32;;;;;;;29.23;8.65;;;;;;;;;;5048384;28;20020;-59
2020/12/25 16:19:59;;;;;;;3.03;1.20;;;;;;;;;;5048953;28;20031;-59
2020/12/25 16:22:26;;;;;;;9.85;2.20;;;;;;;;;;5048765;28;20021;-60
2020/12/25 16:24:52;;;;;;;37.08;10.43;;;;;;;;;;5048831;28;20024;-60
2020/12/25 16:27:18;;;;;;;28.50;8.80;;;;;;;;;;5052466;28;20743;-59
2020/12/25 16:29:44;;;;;;;106.30;32.30;;;;;;;;;;5048394;28;20096;-59
2020/12/25 16:32:10;;;;;;;52.85;12.82;;;;;;;;;;5048856;28;20102;-59
2020/12/25 16:34:36;;;;;;;135.85;48.40;;;;;;;;;;5047618;28;20076;-60
2020/12/25 16:37:02;;;;;;;553.17;250.43;;;;;;;;;;5048649;28;20025;-60
2020/12/25 16:39:28;;;;;;;100.93;90.00;;;;;;;;;;5051172;28;20114;-59
2020/12/25 16:41:55;;;;;;;188.18;145.50;;;;;;;;;;5049464;28;20025;-60
2020/12/25 16:44:21;;;;;;;155.77;110.65;;;;;;;;;;5048313;28;20024;-59
2020/12/25 16:46:47;;;;;;;202.52;109.28;;;;;;;;;;5048488;28;20117;-60
2020/12/25 16:49:15;;;;;;;105.70;57.35;;;;;;;;;;5048537;28;20025;-60
2020/12/25 16:51:42;;;;;;;17.70;8.88;;;;;;;;;;5049795;28;20106;-60
2020/12/25 16:54:08;;;;;;;51.92;27.48;;;;;;;;;;5050630;28;20028;-60
2020/12/25 16:56:38;;;;;;;61.03;31.67;;;;;;;;;;5047805;28;20428;-59
2020/12/25 16:59:05;;;;;;;74.97;42.28;;;;;;;;;;5044156;28;20401;-59
2020/12/25 17:01:31;;;;;;;46.40;26.23;;;;;;;;;;5047541;28;20486;-60
2020/12/25 17:03:57;;;;;;;47.90;29.80;;;;;;;;;;5048053;28;20102;-60
2020/12/25 17:06:33;;;;;;;42.58;28.48;;;;;;;;;;5051080;28;20033;-60
2020/12/25 17:09:00;;;;;;;40.17;26.02;;;;;;;;;;5048654;28;20417;-60
2020/12/25 17:11:26;;;;;;;32.88;17.35;;;;;;;;;;5047144;28;20037;-59
2020/12/25 17:13:52;;;;;;;62.45;38.45;;;;;;;;;;5046845;28;20086;-60
2020/12/25 17:16:19;;;;;;;11.32;4.22;;;;;;;;;;5047740;28;20128;-61
2020/12/25 17:18:46;;;;;;;6.00;1.25;;;;;;;;;;5048246;28;20014;-59
2020/12/25 17:21:13;;;;;;;46.17;30.83;;;;;;;;;;5050463;28;20036;-60
2020/12/25 17:23:39;;;;;;;17.30;9.40;;;;;;;;;;5047015;28;20025;-60
2020/12/25 17:26:11;;;;;;;16.58;9.30;;;;;;;;;;5047040;28;20082;-59
2020/12/25 17:28:38;;;;;;;14.82;5.25;;;;;;;;;;5046646;28;20128;-58
2020/12/25 17:31:05;;;;;;;17.58;9.13;;;;;;;;;;5046603;28;20043;-60
2020/12/25 17:33:31;;;;;;;24.55;11.88;;;;;;;;;;5050137;28;20099;-60
2020/12/25 17:35:57;;;;;;;10.32;3.92;;;;;;;;;;5061533;28;20024;-60
2020/12/25 17:38:23;;;;;;;20.02;4.90;;;;;;;;;;5051727;28;20497;-60
2020/12/25 17:40:49;;;;;;;13.00;5.97;;;;;;;;;;5053193;28;20493;-59
2020/12/25 17:43:15;;;;;;;10.77;4.93;;;;;;;;;;5046742;28;20036;-60
2020/12/25 17:45:42;;;;;;;14.93;5.80;;;;;;;;;;5048096;28;20044;-61
2020/12/25 17:48:08;;;;;;;13.27;5.07;;;;;;;;;;5048206;28;20470;-59
2020/12/25 17:50:34;;;;;;;5.78;1.60;;;;;;;;;;5046616;28;20041;-60
2020/12/25 17:53:01;;;;;;;5.90;2.75;;;;;;;;;;5046133;28;20079;-60
2020/12/25 17:55:27;;;;;;;6.47;3.35;;;;;;;;;;5046381;28;20047;-60
2020/12/25 17:57:53;;;;;;;13.30;4.75;;;;;;;;;;5047119;28;20498;-60
2020/12/25 18:00:19;;;;;;;7.22;3.47;;;;;;;;;;5050369;28;20116;-59
2020/12/25 18:02:45;;;;;;;22.10;11.10;;;;;;;;;;5046560;28;20032;-60
2020/12/25 18:05:11;;;;;;;17.45;11.20;;;;;;;;;;5046614;28;20025;-60
2020/12/25 18:07:37;;;;;;;14.23;5.53;;;;;;;;;;5046809;28;20025;-60
2020/12/25 18:10:03;;;;;;;10.73;3.90;;;;;;;;;;5048453;28;20025;-60
2020/12/25 18:12:30;;;;;;;8.50;4.28;;;;;;;;;;5048653;28;20036;-61
2020/12/25 18:14:56;;;;;;;62.08;29.45;;;;;;;;;;5049324;28;20041;-60
2020/12/25 18:17:22;;;;;;;46.92;19.73;;;;;;;;;;5048387;28;20103;-62
2020/12/25 18:19:48;;;;;;;8.90;2.28;;;;;;;;;;5047622;28;20070;-61
2020/12/25 18:22:14;;;;;;;10.43;6.00;;;;;;;;;;5046771;28;20025;-61
2020/12/25 18:24:41;;;;;;;8.93;2.15;;;;;;;;;;5047571;28;20021;-60
2020/12/25 18:27:09;;;;;;;38.80;15.38;;;;;;;;;;5048423;28;20058;-59
2020/12/25 18:29:36;;;;;;;18.15;6.57;;;;;;;;;;5046366;28;20061;-60
2020/12/25 18:32:05;;;;;;;23.67;10.05;;;;;;;;;;5046171;28;20402;-60
2020/12/25 18:34:31;;;;;;;11.52;5.78;;;;;;;;;;5045461;28;20048;-60
2020/12/25 18:36:58;;;;;;;12.48;4.90;;;;;;;;;;5046470;28;20034;-60
2020/12/25 18:39:24;;;;;;;10.80;4.72;;;;;;;;;;5049998;28;20040;-60
2020/12/25 18:41:50;;;;;;;7.50;2.05;;;;;;;;;;5047044;28;20041;-60
2020/12/25 18:44:16;;;;;;;14.45;4.22;;;;;;;;;;5046759;28;20013;-60
2020/12/25 18:46:45;;;;;;;27.95;14.05;;;;;;;;;;5046607;28;20119;-60
2020/12/25 18:49:12;;;;;;;9.13;3.80;;;;;;;;;;5046828;28;20029;-61
2020/12/25 18:51:38;;;;;;;14.55;4.05;;;;;;;;;;5048527;28;20509;-60
2020/12/25 18:54:04;;;;;;;7.75;4.30;;;;;;;;;;5048291;28;20025;-61
2020/12/25 18:56:30;;;;;;;9.15;4.22;;;;;;;;;;5045937;28;20086;-60
2020/12/25 18:58:56;;;;;;;11.27;2.45;;;;;;;;;;5050097;28;20013;-60
2020/12/25 19:01:23;;;;;;;5.40;2.47;;;;;;;;;;5050533;28;20544;-61
2020/12/25 19:03:49;;;;;;;9.00;4.30;;;;;;;;;;5047904;28;20059;-60
2020/12/25 19:06:15;;;;;;;14.90;3.60;;;;;;;;;;5034527;28;20414;-61
2020/12/25 19:08:41;;;;;;;68.65;37.97;;;;;;;;;;5033095;28;20036;-60
2020/12/25 19:11:07;;;;;;;14.27;8.90;;;;;;;;;;5033792;28;20687;-61
2020/12/25 19:13:34;;;;;;;17.15;6.80;;;;;;;;;;5034983;28;20436;-64
2020/12/25 19:16:05;;;;;;;13.52;5.57;;;;;;;;;;5033399;28;20033;-78
2020/12/25 19:18:31;;;;;;;21.45;12.38;;;;;;;;;;5032485;28;20033;-68
2020/12/25 19:20:57;;;;;;;10.68;5.90;;;;;;;;;;5034151;28;20402;-65
2020/12/25 19:23:23;;;;;;;10.52;6.32;;;;;;;;;;5033887;28;20107;-66
2020/12/25 19:25:49;;;;;;;16.10;6.47;;;;;;;;;;5035942;28;20079;-64
2020/12/25 19:28:16;;;;;;;16.20;7.60;;;;;;;;;;5029370;28;20025;-64
2020/12/25 19:30:42;;;;;;;12.90;6.53;;;;;;;;;;5034515;28;20037;-65
2020/12/25 19:33:08;;;;;;;12.68;5.28;;;;;;;;;;5039473;28;20029;-71
2020/12/25 19:35:34;;;;;;;18.33;13.48;;;;;;;;;;5036864;28;20026;-65
2020/12/25 19:38:00;;;;;;;16.65;10.48;;;;;;;;;;5033518;28;20055;-64
2020/12/25 19:40:26;;;;;;;14.82;8.85;;;;;;;;;;5032611;28;20402;-65
2020/12/25 19:42:52;;;;;;;12.80;7.00;;;;;;;;;;5032614;28;20029;-65
2020/12/25 19:45:18;;;;;;;10.68;4.50;;;;;;;;;;5031268;28;20037;-67
2020/12/25 19:47:45;;;;;;;8.52;4.20;;;;;;;;;;5033560;28;20036;-65
2020/12/25 19:50:11;;;;;;;10.15;4.90;;;;;;;;;;5036147;28;20051;-65
2020/12/25 19:52:37;;;;;;;6.40;3.20;;;;;;;;;;5037744;28;20485;-65
2020/12/25 19:55:03;;;;;;;12.65;4.50;;;;;;;;;;5032152;28;20025;-65
2020/12/25 19:57:29;;;;;;;21.88;19.48;;;;;;;;;;5032805;28;20029;-69
2020/12/25 19:59:56;;;;;;;39.35;30.38;;;;;;;;;;5041695;28;20074;-64
2020/12/25 20:02:22;;;;;;;5.70;2.75;;;;;;;;;;5039927;28;20028;-65
2020/12/25 20:04:49;;;;;;;6.18;2.03;;;;;;;;;;5046802;28;20157;-65
2020/12/25 20:07:15;;;;;;;6.57;2.13;;;;;;;;;;5040654;28;20021;-64
2020/12/25 20:09:41;;;;;;;10.02;4.10;;;;;;;;;;5041620;28;20033;-65
2020/12/25 20:12:07;;;;;;;10.15;5.18;;;;;;;;;;5036057;28;20422;-65
2020/12/25 20:14:33;;;;;;;30.25;26.85;;;;;;;;;;5056414;28;20029;-64
2020/12/25 20:16:59;;;;;;;7.00;3.67;;;;;;;;;;5055271;28;20021;-64
2020/12/25 20:19:26;;;;;;;7.90;1.60;;;;;;;;;;5045337;28;20021;-65
2020/12/25 20:21:52;;;;;;;7.70;3.40;;;;;;;;;;5047031;28;20041;-65